Boston, MA

8:31 AM EST on January 25, 2015 (GMT -0500)
Southie | Change Station
CLOSE
Current Station
Personal Weather Station
Location: Boston, MA
Elevation: 33 ft
Nearby Weather Stations
Active Advisory: Blizzard Watch, Coastal Flood Watch Active Notice: Local Storm Report

Elev 33 ft 42.34 °N, 71.04 °W | Updated 10 seconds ago

Scattered Clouds
Scattered Clouds
33.6 °F
Feels Like 34 °F
N
2.0
Wind Variable Wind from WSW
Gusts 15.0 mph

Today
High -- | Low -- °F
--% Chance of Precip.
Yesterday
High -- | Low -- °F
Precip. -- in
7:04 AM 4:48 PM
Waxing Crescent, 32% visible
Pressure 29.48 in
Visibility 10.0 miles
Clouds Few 5000 ft
Scattered Clouds 8000 ft
Scattered Clouds 25000 ft
Windchill 34 °F
Dew Point 29 °F
Humidity 83%
Rainfall 0.00 in
Snow Depth Not available.
UV 0 out of 12
Pollen .10 out of 12
Air Quality Not available.
Flu Activity Not available.
METAR KBOS 251154Z 25016G23KT 10SM FEW050 SCT080 SCT250 01/M03 A2948 RMK AO2 PK WND 26029/1134 SLP983 70060 T00111033 10011 21006 53024

More Conditions Fewer Conditions

Pressure 29.48 in
Visibility 10.0 miles
Clouds Few 5000 ft
Scattered Clouds 8000 ft
Scattered Clouds 25000 ft
Windchill 34 °F
Dew Point 29 °F
Humidity 83%
Rainfall 0.00 in
Snow Depth Not available.
UV 0 out of 12
Pollen .10 out of 12
Air Quality Not available.
Flu Activity Not available.
METAR KBOS 251154Z 25016G23KT 10SM FEW050 SCT080 SCT250 01/M03 A2948 RMK AO2 PK WND 26029/1134 SLP983 70060 T00111033 10011 21006 53024

More Conditions Fewer Conditions

10-Day Weather Forecast

Almanac

Astronomy

Jan. 25, 2015 Rise Set
Actual Time
Civil Twilight
Nautical Twilight
Astronomical Twilight
Moon
Length of Visible Light
Length of Day
Tomorrow will be .
, % of the Moon is Illuminated

Today's Extremes

State Highs State Lows

Community

WunderPhotos

Upload Photos

1,789,883 photos uploaded!

WunderBlogs® & News

Nearby

Air Quality

  Air Quality AQ Index Pollutant
Not available.

Snow Depth

Station Depth Elevation

Earthquake Activity

City Distance Mag. Time & Date
Minimum magnitude displayed is 2.5.

Coastal Water Temperatures

Place Temperature

Nearby Weather Stations